Terminal Aerodrome Forecast
Issued by NWS Cleveland, OH

Home | Current Version | Previous Version | Text Only | Print | Product List | Glossary On
Versions: 1 2 3 4 5 6 7 8 9 10 11 12 13 14 15 16
449
FTUS41 KCLE 292337
TAFTOL
TAF
KTOL 292337Z 3000/3024 06003KT P6SM SCT050
     FM301000 08008KT P6SM OVC050
     FM302100 08010KT 4SM -RA BR OVC015=

USA.gov is the U.S. government's official web portal to all federal, state and local government web resources and services.